LFPO/ORY METAR and TAF weather

Enter ICAO airport designator
Station Type Date Time Source
LFPO METAR 2019/08/19 08:30 UTC NOAA

LFPO 190830Z 25010KT 220V280 9999 FEW026 19/12 Q1018 NOSIG


Station Type Date Time Source
LFPO Decoded METAR 2019/08/19 08:30 UTC NOAA

Station name not available
Aug 19, 2019 - 04:30 AM EDT / 2019.08.19 0830 UTC
Wind: from the WSW (250 degrees) at 12 MPH (10 KT) (direction variable):0
Visibility: greater than 7 mile(s):0
Sky conditions: mostly clear
Temperature: 66 F (19 C)
Dew Point: 53 F (12 C)
Relative Humidity: 63%
Pressure (altimeter): 30.06 in. Hg (1018 hPa)
ob: LFPO 190830Z 25010KT 220V280 9999 FEW026 19/12 Q1018 NOSIG
cycle: 8

Station Type Date Time Source
LFPO TAF 2019/08/19 06:25 UTC NOAA

TAF LFPO 190500Z 1906/2012 24004KT CAVOK

Example: see airport list